createdAt,value
2023-03-29T00:00:32.572Z,-8.98
2023-03-29T00:03:02.670Z,-9.07
2023-03-29T00:05:34.014Z,-9.03
2023-03-29T00:08:04.392Z,-9.08
2023-03-29T00:10:33.973Z,-9.09
2023-03-29T00:13:02.051Z,-9.12
2023-03-29T00:15:29.728Z,-9.20
2023-03-29T00:17:57.534Z,-9.33
2023-03-29T00:20:25.547Z,-9.38
2023-03-29T00:22:53.257Z,-9.33
2023-03-29T00:25:20.997Z,-9.39
2023-03-29T00:27:50.291Z,-9.39
2023-03-29T00:30:18.233Z,-9.42
2023-03-29T00:32:46.020Z,-9.45
2023-03-29T00:35:13.847Z,-9.43
2023-03-29T00:37:41.869Z,-9.53
2023-03-29T00:40:12.808Z,-9.54
2023-03-29T00:42:40.554Z,-9.62
2023-03-29T00:45:19.079Z,-9.65
2023-03-29T00:47:49.874Z,-9.64
2023-03-29T00:50:20.182Z,-9.61
2023-03-29T00:52:50.655Z,-9.62
2023-03-29T00:55:21.784Z,-9.71
2023-03-29T00:57:49.624Z,-9.90
2023-03-29T01:00:20.966Z,-10.08
2023-03-29T01:02:54.239Z,-10.12
2023-03-29T01:05:24.539Z,-10.11
2023-03-29T01:07:57.969Z,-10.17
2023-03-29T01:10:28.675Z,-10.18
2023-03-29T01:13:00.326Z,-10.11
2023-03-29T01:15:29.880Z,-10.15
2023-03-29T01:17:58.474Z,-10.09
2023-03-29T01:20:33.220Z,-10.00
2023-03-29T01:23:08.392Z,-10.21
2023-03-29T01:25:41.372Z,-10.36
2023-03-29T01:28:12.036Z,-10.40
2023-03-29T01:30:43.193Z,-10.64
2023-03-29T01:33:21.231Z,-10.89
2023-03-29T01:35:52.142Z,-10.97
2023-03-29T01:38:22.789Z,-10.96
2023-03-29T01:40:50.450Z,-10.95
2023-03-29T01:43:23.623Z,-10.88
2023-03-29T01:45:54.602Z,-10.71
2023-03-29T01:48:26.868Z,-10.65
2023-03-29T01:50:56.120Z,-10.59
2023-03-29T01:53:27.328Z,-10.71
2023-03-29T01:55:56.801Z,-10.79
2023-03-29T01:58:28.386Z,-10.89
2023-03-29T02:00:56.342Z,-10.82
2023-03-29T02:03:25.208Z,-10.78
2023-03-29T02:05:53.525Z,-10.63
2023-03-29T02:08:23.119Z,-10.81
2023-03-29T02:10:52.534Z,-10.69
2023-03-29T02:13:20.638Z,-10.56
2023-03-29T02:15:49.704Z,-10.54
2023-03-29T02:18:18.619Z,-10.61
2023-03-29T02:20:48.618Z,-10.52
2023-03-29T02:23:18.122Z,-10.44
2023-03-29T02:25:47.117Z,-10.42
2023-03-29T02:28:15.367Z,-10.95
2023-03-29T02:30:45.293Z,-11.04
2023-03-29T02:33:16.429Z,-11.20
2023-03-29T02:35:48.505Z,-11.32
2023-03-29T02:38:17.333Z,-11.44
2023-03-29T02:40:46.788Z,-11.58
2023-03-29T02:43:16.647Z,-11.58
2023-03-29T02:45:45.291Z,-11.59
2023-03-29T02:48:17.198Z,-11.51
2023-03-29T02:50:47.152Z,-11.44
2023-03-29T02:53:18.088Z,-11.54
2023-03-29T02:55:46.958Z,-11.55
2023-03-29T02:58:15.493Z,-11.64
2023-03-29T03:00:44.887Z,-11.68
2023-03-29T03:03:15.613Z,-11.70
2023-03-29T03:05:43.549Z,-11.52
2023-03-29T03:08:11.474Z,-11.59
2023-03-29T03:10:39.896Z,-11.63
2023-03-29T03:13:07.572Z,-11.51
2023-03-29T03:15:35.834Z,-11.40
2023-03-29T03:18:04.515Z,-11.41
2023-03-29T03:20:33.599Z,-11.41
2023-03-29T03:23:03.303Z,-11.49
2023-03-29T03:25:31.704Z,-11.46
2023-03-29T03:27:59.502Z,-11.51
2023-03-29T03:30:29.359Z,-11.46
2023-03-29T03:32:57.162Z,-11.45
2023-03-29T03:35:25.311Z,-11.40
2023-03-29T03:37:54.389Z,-11.33
2023-03-29T03:40:22.120Z,-11.34
2023-03-29T03:42:49.790Z,-11.42
2023-03-29T03:45:17.583Z,-11.47
2023-03-29T03:47:45.562Z,-11.46
2023-03-29T03:50:13.792Z,-11.49
2023-03-29T03:52:41.408Z,-11.48
2023-03-29T03:55:10.858Z,-11.47
2023-03-29T03:57:38.545Z,-11.59
2023-03-29T04:00:19.429Z,-11.54
2023-03-29T04:02:48.356Z,-11.54
2023-03-29T04:05:16.405Z,-11.51
2023-03-29T04:07:44.170Z,-11.45
2023-03-29T04:10:13.303Z,-11.39
2023-03-29T04:12:41.072Z,-11.36
2023-03-29T04:15:10.525Z,-11.40
2023-03-29T04:17:38.715Z,-11.57
2023-03-29T04:20:11.623Z,-11.62
2023-03-29T04:22:39.417Z,-11.64
2023-03-29T04:25:08.230Z,-11.56
2023-03-29T04:27:39.609Z,-11.59
2023-03-29T04:30:08.246Z,-11.58
2023-03-29T04:32:36.345Z,-11.58
2023-03-29T04:35:04.840Z,-11.58
2023-03-29T04:37:32.956Z,-11.67
2023-03-29T04:40:01.393Z,-11.64
2023-03-29T04:42:29.427Z,-11.60
2023-03-29T04:44:58.593Z,-11.51
2023-03-29T04:47:30.119Z,-11.46
2023-03-29T04:49:58.052Z,-11.34
2023-03-29T04:52:26.120Z,-11.28
2023-03-29T04:54:53.832Z,-11.22
2023-03-29T04:57:21.515Z,-11.20
2023-03-29T04:59:49.215Z,-11.22
2023-03-29T05:02:18.293Z,-11.07
2023-03-29T05:04:46.032Z,-10.96
2023-03-29T05:07:15.576Z,-10.91
2023-03-29T05:09:43.721Z,-10.79
2023-03-29T05:12:11.628Z,-10.73
2023-03-29T05:14:39.240Z,-10.69
2023-03-29T05:17:06.946Z,-10.71
2023-03-29T05:19:36.550Z,-10.66
2023-03-29T05:22:04.162Z,-10.59
2023-03-29T05:24:31.837Z,-10.52
2023-03-29T05:26:59.654Z,-10.49
2023-03-29T05:29:27.399Z,-10.51
2023-03-29T05:31:55.373Z,-10.43
2023-03-29T05:34:23.151Z,-10.44
2023-03-29T05:36:52.367Z,-10.33
2023-03-29T05:39:21.127Z,-10.24
2023-03-29T05:41:48.860Z,-10.16
2023-03-29T05:44:16.941Z,-10.09
2023-03-29T05:46:44.554Z,-10.08
2023-03-29T05:49:12.413Z,-9.94
2023-03-29T05:51:42.084Z,-9.75
2023-03-29T05:54:11.584Z,-9.62
2023-03-29T05:56:39.328Z,-9.44
2023-03-29T05:59:08.438Z,-9.29
2023-03-29T06:01:36.734Z,-9.27
2023-03-29T06:04:06.162Z,-9.13
2023-03-29T06:06:33.989Z,-9.04
2023-03-29T06:09:01.658Z,-8.94
2023-03-29T06:11:30.635Z,-8.91
2023-03-29T06:13:58.556Z,-8.88
2023-03-29T06:16:26.285Z,-8.79
2023-03-29T06:18:54.226Z,-8.69
2023-03-29T06:21:22.319Z,-8.57
2023-03-29T06:23:50.395Z,-8.49
2023-03-29T06:26:18.978Z,-8.50
2023-03-29T06:28:51.362Z,-8.59
2023-03-29T06:31:20.008Z,-8.51
2023-03-29T06:33:47.812Z,-8.34
2023-03-29T06:36:16.728Z,-8.17
2023-03-29T06:38:46.006Z,-8.01
2023-03-29T06:41:13.682Z,-7.81
2023-03-29T06:43:41.987Z,-7.59
2023-03-29T06:46:12.279Z,-7.32
2023-03-29T06:48:40.305Z,-6.87
2023-03-29T06:51:08.640Z,-6.41
2023-03-29T06:53:36.742Z,-6.47
2023-03-29T06:56:09.386Z,-5.84
2023-03-29T06:58:37.351Z,-6.05
2023-03-29T07:01:05.565Z,-6.66
2023-03-29T07:03:36.341Z,-6.87
2023-03-29T07:06:09.851Z,-6.92
2023-03-29T07:08:43.372Z,-6.90
2023-03-29T07:11:12.593Z,-6.76
2023-03-29T07:13:42.461Z,-6.58
2023-03-29T07:16:12.756Z,-6.48
2023-03-29T07:18:42.940Z,-6.53
2023-03-29T07:21:11.657Z,-6.49
2023-03-29T07:23:39.300Z,-6.34
2023-03-29T07:26:08.099Z,-6.22
2023-03-29T07:28:37.497Z,-6.03
2023-03-29T07:31:06.849Z,-5.84
2023-03-29T07:33:35.230Z,-5.75
2023-03-29T07:36:04.898Z,-5.68
2023-03-29T07:38:32.851Z,-5.58
2023-03-29T07:41:00.830Z,-5.51
2023-03-29T07:43:29.093Z,-5.38
2023-03-29T07:45:59.053Z,-5.28
2023-03-29T07:48:26.939Z,-5.24
2023-03-29T07:50:54.550Z,-5.01
2023-03-29T07:53:23.789Z,-4.81
2023-03-29T07:55:54.424Z,-4.66
2023-03-29T07:58:22.575Z,-4.67
2023-03-29T08:00:50.748Z,-4.68
2023-03-29T08:03:18.654Z,-4.59
2023-03-29T08:05:46.397Z,-4.47
2023-03-29T08:08:14.218Z,-4.35
2023-03-29T08:10:44.611Z,-4.25
2023-03-29T08:13:12.596Z,-4.03
2023-03-29T08:15:42.188Z,-3.98
2023-03-29T08:18:10.006Z,-3.89
2023-03-29T08:20:37.739Z,-3.76
2023-03-29T08:23:06.457Z,-3.68
2023-03-29T08:25:35.175Z,-3.60
2023-03-29T08:28:04.404Z,-3.51
2023-03-29T08:30:32.159Z,-3.37
2023-03-29T08:32:59.854Z,-3.27
2023-03-29T08:35:27.689Z,-3.13
2023-03-29T08:37:55.293Z,-3.12
2023-03-29T08:40:26.367Z,-3.04
2023-03-29T08:43:07.103Z,-2.90
2023-03-29T08:45:38.492Z,-2.76
2023-03-29T08:48:12.440Z,-2.60
2023-03-29T08:50:41.990Z,-2.57
2023-03-29T08:53:13.864Z,-2.44
2023-03-29T08:55:42.949Z,-2.44
2023-03-29T08:58:15.697Z,-2.52
2023-03-29T09:00:45.143Z,-2.52
2023-03-29T09:03:17.944Z,-2.52
2023-03-29T09:05:47.474Z,-2.52
2023-03-29T09:08:17.503Z,-2.35
2023-03-29T09:10:47.350Z,-2.18
2023-03-29T09:13:22.513Z,-2.02
2023-03-29T09:15:56.105Z,-1.85
2023-03-29T09:18:27.628Z,-1.72
2023-03-29T09:20:58.153Z,-1.63
2023-03-29T09:23:44.439Z,-1.53
2023-03-29T09:26:15.793Z,-1.40
2023-03-29T09:28:48.518Z,-1.32
2023-03-29T09:31:16.809Z,-1.28
2023-03-29T09:33:47.782Z,-1.26
2023-03-29T09:36:18.429Z,-1.19
2023-03-29T09:38:49.072Z,-1.16
2023-03-29T09:41:21.789Z,-1.08
2023-03-29T09:43:51.820Z,-1.02
2023-03-29T09:46:23.858Z,-0.91
2023-03-29T09:48:52.033Z,-0.85
2023-03-29T09:51:22.707Z,-0.80
2023-03-29T09:53:50.589Z,-0.70
2023-03-29T09:56:19.071Z,-0.62
2023-03-29T09:58:47.660Z,-0.58
2023-03-29T10:01:18.922Z,-0.54
2023-03-29T10:03:49.045Z,-0.49
2023-03-29T10:06:17.534Z,-0.42
2023-03-29T10:08:47.728Z,-0.32
2023-03-29T10:11:22.083Z,-0.26
2023-03-29T10:13:51.419Z,-0.17
2023-03-29T10:16:21.768Z,-0.16
2023-03-29T10:18:50.263Z,-0.17
2023-03-29T10:21:20.180Z,-0.14
2023-03-29T10:23:48.478Z,-0.13
2023-03-29T10:26:23.882Z,-0.12
2023-03-29T10:28:54.212Z,-0.06
2023-03-29T10:31:24.061Z,-0.01
2023-03-29T10:33:53.328Z,0.09
2023-03-29T10:36:22.656Z,0.12
2023-03-29T10:38:51.302Z,0.15
2023-03-29T10:41:20.363Z,0.24
2023-03-29T10:43:50.849Z,0.30
2023-03-29T10:46:23.115Z,0.36
2023-03-29T10:48:53.142Z,0.42
2023-03-29T10:51:21.136Z,0.40
2023-03-29T10:53:49.082Z,0.40
2023-03-29T10:56:28.003Z,0.41
2023-03-29T10:59:10.129Z,0.52
2023-03-29T11:01:42.564Z,0.59
2023-03-29T11:04:19.492Z,0.70
2023-03-29T11:06:48.759Z,0.78
2023-03-29T11:09:22.806Z,0.87
2023-03-29T11:12:15.613Z,0.85
2023-03-29T11:14:48.870Z,0.86
2023-03-29T11:17:26.721Z,0.90
2023-03-29T11:20:05.197Z,0.90
2023-03-29T11:22:41.440Z,0.89
2023-03-29T11:25:15.893Z,0.91
2023-03-29T11:27:46.836Z,0.88
2023-03-29T11:30:19.868Z,0.89
2023-03-29T11:32:53.391Z,0.95
2023-03-29T11:35:32.429Z,0.95
2023-03-29T11:38:03.239Z,0.99
2023-03-29T11:40:36.689Z,0.91
2023-03-29T11:43:07.145Z,1.02
2023-03-29T11:45:37.484Z,1.01
2023-03-29T11:48:07.838Z,1.00
2023-03-29T11:50:42.171Z,0.90
2023-03-29T11:53:12.716Z,0.93
2023-03-29T11:55:41.441Z,0.87
2023-03-29T11:58:14.267Z,0.95
2023-03-29T12:00:44.877Z,0.88
2023-03-29T12:03:14.943Z,0.93
2023-03-29T12:05:46.896Z,0.87
2023-03-29T12:08:17.068Z,0.90
2023-03-29T12:10:47.228Z,0.76
2023-03-29T12:13:18.191Z,0.80
2023-03-29T12:15:49.363Z,0.71
2023-03-29T12:18:18.955Z,0.79
2023-03-29T12:20:49.711Z,0.88
2023-03-29T12:23:17.843Z,0.92
2023-03-29T12:25:52.319Z,0.93
2023-03-29T12:28:28.484Z,0.98
2023-03-29T12:31:02.864Z,1.03
2023-03-29T12:33:42.081Z,1.02
2023-03-29T12:36:17.485Z,1.00
2023-03-29T12:38:48.105Z,1.06
2023-03-29T12:41:19.023Z,1.04
2023-03-29T12:43:48.125Z,1.13
2023-03-29T12:46:18.305Z,1.01
2023-03-29T12:48:47.666Z,0.95
2023-03-29T12:51:17.970Z,0.94
2023-03-29T12:53:47.087Z,0.89
2023-03-29T12:56:16.196Z,0.86
2023-03-29T12:58:51.224Z,0.90
2023-03-29T13:01:27.474Z,0.73
2023-03-29T13:03:58.397Z,0.70
2023-03-29T13:06:33.026Z,0.70
2023-03-29T13:09:02.013Z,0.69
2023-03-29T13:11:33.808Z,0.69
2023-03-29T13:14:03.200Z,0.70
2023-03-29T13:16:34.416Z,0.72
2023-03-29T13:19:08.792Z,0.74
2023-03-29T13:21:42.072Z,0.84
2023-03-29T13:24:22.347Z,0.85
2023-03-29T13:26:54.909Z,0.95
2023-03-29T13:29:41.535Z,0.94
2023-03-29T13:32:20.458Z,0.89
2023-03-29T13:34:51.608Z,1.03
2023-03-29T13:37:29.900Z,1.11
2023-03-29T13:39:57.696Z,1.17
2023-03-29T13:42:26.191Z,1.07
2023-03-29T13:44:54.288Z,0.99
2023-03-29T13:47:43.165Z,0.95
2023-03-29T13:50:17.846Z,0.95
2023-03-29T13:52:53.968Z,0.81
2023-03-29T13:55:25.140Z,0.73
2023-03-29T13:57:56.818Z,0.61
2023-03-29T14:00:26.978Z,0.53
2023-03-29T14:02:56.302Z,0.47
2023-03-29T14:05:26.481Z,0.38
2023-03-29T14:07:56.396Z,0.36
2023-03-29T14:10:26.777Z,0.32
2023-03-29T14:12:55.615Z,0.30
2023-03-29T14:15:24.684Z,0.27
2023-03-29T14:17:58.962Z,0.25
2023-03-29T14:20:28.807Z,0.07
2023-03-29T14:22:57.939Z,-0.08
2023-03-29T14:25:25.744Z,-0.16
2023-03-29T14:27:53.470Z,-0.21
2023-03-29T14:30:23.181Z,-0.21
2023-03-29T14:32:52.436Z,-0.24
2023-03-29T14:35:20.862Z,-0.26
2023-03-29T14:37:49.245Z,-0.25
2023-03-29T14:40:19.391Z,-0.32
2023-03-29T14:42:48.255Z,-0.30
2023-03-29T14:45:17.696Z,-0.33
2023-03-29T14:47:46.397Z,-0.41
2023-03-29T14:50:19.050Z,-0.45
2023-03-29T14:52:49.234Z,-0.43
2023-03-29T14:55:23.747Z,-0.49
2023-03-29T14:57:52.886Z,-0.45
2023-03-29T15:00:24.468Z,-0.48
2023-03-29T15:02:55.222Z,-0.50
2023-03-29T15:05:25.620Z,-0.51
2023-03-29T15:07:56.252Z,-0.52
2023-03-29T15:10:25.889Z,-0.51
2023-03-29T15:12:54.759Z,-0.53
2023-03-29T15:15:24.916Z,-0.55
2023-03-29T15:17:57.158Z,-0.58
2023-03-29T15:20:26.914Z,-0.60
2023-03-29T15:22:57.021Z,-0.61
2023-03-29T15:25:27.787Z,-0.62
2023-03-29T15:27:57.970Z,-0.63
2023-03-29T15:30:34.424Z,-0.63
2023-03-29T15:33:15.170Z,-0.63
2023-03-29T15:35:43.701Z,-0.62
2023-03-29T15:38:12.012Z,-0.58
2023-03-29T15:40:41.166Z,-0.58
2023-03-29T15:43:08.848Z,-0.56
2023-03-29T15:45:36.701Z,-0.61
2023-03-29T15:48:10.116Z,-0.57
2023-03-29T15:50:37.747Z,-0.57
2023-03-29T15:53:14.809Z,-0.58
2023-03-29T15:55:46.322Z,-0.60
2023-03-29T15:58:15.220Z,-0.61
2023-03-29T16:00:44.501Z,-0.67
2023-03-29T16:03:14.792Z,-0.72
2023-03-29T16:05:42.912Z,-0.77
2023-03-29T16:08:11.249Z,-0.82
2023-03-29T16:10:39.075Z,-0.87
2023-03-29T16:13:08.167Z,-0.92
2023-03-29T16:15:36.862Z,-0.99
2023-03-29T16:18:04.752Z,-1.04
2023-03-29T16:20:32.506Z,-1.06
2023-03-29T16:23:00.212Z,-1.08
2023-03-29T16:25:28.890Z,-1.14
2023-03-29T16:27:56.579Z,-1.18
2023-03-29T16:30:25.783Z,-1.23
2023-03-29T16:32:53.422Z,-1.28
2023-03-29T16:35:22.873Z,-1.32
2023-03-29T16:37:50.580Z,-1.34
2023-03-29T16:40:18.373Z,-1.37
2023-03-29T16:42:46.035Z,-1.41
2023-03-29T16:45:14.398Z,-1.39
2023-03-29T16:47:44.778Z,-1.36
2023-03-29T16:50:13.308Z,-1.40
2023-03-29T16:52:41.638Z,-1.36
2023-03-29T16:55:12.137Z,-1.36
2023-03-29T16:57:40.760Z,-1.35
2023-03-29T17:00:10.837Z,-1.37
2023-03-29T17:02:38.675Z,-1.37
2023-03-29T17:05:08.036Z,-1.41
2023-03-29T17:07:36.074Z,-1.41
2023-03-29T17:10:04.800Z,-1.42
2023-03-29T17:12:32.453Z,-1.47
2023-03-29T17:15:00.441Z,-1.54
2023-03-29T17:17:28.174Z,-1.61
2023-03-29T17:19:56.187Z,-1.69
2023-03-29T17:22:25.473Z,-1.77
2023-03-29T17:24:53.306Z,-1.84
2023-03-29T17:27:21.041Z,-1.92
2023-03-29T17:29:48.741Z,-1.95
2023-03-29T17:32:16.460Z,-2.00
2023-03-29T17:34:44.136Z,-2.18
2023-03-29T17:37:11.792Z,-2.23
2023-03-29T17:39:42.108Z,-2.22
2023-03-29T17:42:11.662Z,-2.23
2023-03-29T17:44:39.426Z,-2.32
2023-03-29T17:47:07.240Z,-2.35
2023-03-29T17:49:35.107Z,-2.40
2023-03-29T17:52:02.788Z,-2.52
2023-03-29T17:54:30.603Z,-2.59
2023-03-29T17:56:59.686Z,-2.64
2023-03-29T17:59:27.425Z,-2.70
2023-03-29T18:01:55.189Z,-2.74
2023-03-29T18:04:22.985Z,-2.76
2023-03-29T18:06:50.668Z,-2.77
2023-03-29T18:09:18.344Z,-2.77
2023-03-29T18:11:46.125Z,-2.88
2023-03-29T18:14:15.258Z,-2.92
2023-03-29T18:16:43.119Z,-2.97
2023-03-29T18:19:11.002Z,-2.96
2023-03-29T18:21:38.741Z,-2.94
2023-03-29T18:24:06.500Z,-3.05
2023-03-29T18:26:34.136Z,-3.12
2023-03-29T18:29:01.901Z,-3.20
2023-03-29T18:31:30.986Z,-3.34
2023-03-29T18:33:58.892Z,-3.40
2023-03-29T18:36:26.768Z,-3.43
2023-03-29T18:38:55.990Z,-3.51
2023-03-29T18:41:24.606Z,-3.64
2023-03-29T18:43:52.307Z,-3.64
2023-03-29T18:46:19.955Z,-3.59
2023-03-29T18:48:49.186Z,-3.65
2023-03-29T18:51:16.829Z,-3.77
2023-03-29T18:53:44.579Z,-3.88
2023-03-29T18:56:12.395Z,-3.92
2023-03-29T18:58:40.055Z,-3.97
2023-03-29T19:01:08.152Z,-4.09
2023-03-29T19:03:36.397Z,-4.09
2023-03-29T19:06:06.677Z,-4.19
2023-03-29T19:08:36.681Z,-4.23
2023-03-29T19:11:05.539Z,-4.30
2023-03-29T19:13:33.301Z,-4.33
2023-03-29T19:16:01.239Z,-4.33
2023-03-29T19:18:29.311Z,-4.41
2023-03-29T19:20:57.022Z,-4.52
2023-03-29T19:23:28.249Z,-4.59
2023-03-29T19:25:56.758Z,-4.67
2023-03-29T19:28:24.921Z,-4.62
2023-03-29T19:30:52.931Z,-4.66
2023-03-29T19:33:20.885Z,-4.77
2023-03-29T19:35:50.487Z,-4.77
2023-03-29T19:38:18.186Z,-4.87
2023-03-29T19:40:47.370Z,-4.85
2023-03-29T19:43:16.786Z,-4.93
2023-03-29T19:45:44.716Z,-4.98
2023-03-29T19:48:21.169Z,-5.07
2023-03-29T19:50:49.835Z,-5.05
2023-03-29T19:53:17.511Z,-5.06
2023-03-29T19:55:45.601Z,-5.07
2023-03-29T19:58:14.756Z,-5.11
2023-03-29T20:00:42.537Z,-5.15
2023-03-29T20:03:10.557Z,-5.17
2023-03-29T20:05:39.512Z,-5.16
2023-03-29T20:08:07.650Z,-5.25
2023-03-29T20:10:35.858Z,-5.29
2023-03-29T20:13:05.734Z,-5.34
2023-03-29T20:15:35.024Z,-5.39
2023-03-29T20:18:03.432Z,-5.48
2023-03-29T20:20:31.762Z,-5.45
2023-03-29T20:23:04.561Z,-5.54
2023-03-29T20:25:32.956Z,-5.63
2023-03-29T20:28:00.700Z,-5.74
2023-03-29T20:30:28.480Z,-5.79
2023-03-29T20:32:57.690Z,-5.82
2023-03-29T20:35:25.718Z,-5.90
2023-03-29T20:37:53.388Z,-5.91
2023-03-29T20:40:21.030Z,-5.94
2023-03-29T20:42:49.057Z,-6.01
2023-03-29T20:45:19.556Z,-6.11
2023-03-29T20:47:57.730Z,-6.22
2023-03-29T20:50:27.437Z,-6.32
2023-03-29T20:52:55.456Z,-6.40
2023-03-29T20:55:23.499Z,-6.50
2023-03-29T20:57:51.346Z,-6.58
2023-03-29T21:00:19.908Z,-6.63
2023-03-29T21:02:47.819Z,-6.66
2023-03-29T21:05:16.221Z,-6.67
2023-03-29T21:07:48.056Z,-6.73
2023-03-29T21:10:15.827Z,-6.75
2023-03-29T21:12:43.531Z,-6.72
2023-03-29T21:15:13.392Z,-6.71
2023-03-29T21:17:41.306Z,-6.82
2023-03-29T21:20:11.149Z,-6.95
2023-03-29T21:22:39.016Z,-7.10
2023-03-29T21:25:10.533Z,-7.26
2023-03-29T21:27:38.542Z,-7.39
2023-03-29T21:30:07.019Z,-7.55
2023-03-29T21:32:34.865Z,-7.70
2023-03-29T21:35:02.636Z,-7.82
2023-03-29T21:37:30.368Z,-7.86
2023-03-29T21:39:58.089Z,-7.93
2023-03-29T21:42:27.089Z,-7.97
2023-03-29T21:44:54.791Z,-7.95
2023-03-29T21:47:22.505Z,-7.99
2023-03-29T21:49:51.068Z,-7.99
2023-03-29T21:52:18.832Z,-8.11
2023-03-29T21:54:46.475Z,-8.17
2023-03-29T21:57:14.270Z,-8.17
2023-03-29T21:59:43.301Z,-8.22
2023-03-29T22:02:11.188Z,-8.27
2023-03-29T22:04:39.091Z,-8.27
2023-03-29T22:07:08.328Z,-8.27
2023-03-29T22:09:36.165Z,-8.27
2023-03-29T22:12:03.967Z,-8.27
2023-03-29T22:14:34.724Z,-8.36
2023-03-29T22:17:05.843Z,-8.48
2023-03-29T22:19:34.562Z,-8.63
2023-03-29T22:22:02.432Z,-8.68
2023-03-29T22:24:30.110Z,-8.68
2023-03-29T22:26:57.700Z,-9.01
2023-03-29T22:29:25.634Z,-9.09
2023-03-29T22:31:53.430Z,-9.01
2023-03-29T22:34:22.678Z,-9.07
2023-03-29T22:36:50.375Z,-9.10
2023-03-29T22:39:17.993Z,-9.12
2023-03-29T22:41:46.001Z,-9.20
2023-03-29T22:44:13.656Z,-9.21
2023-03-29T22:46:41.346Z,-9.23
2023-03-29T22:49:09.057Z,-9.25
2023-03-29T22:51:38.206Z,-9.22
2023-03-29T22:54:06.037Z,-9.24
2023-03-29T22:56:33.714Z,-9.28
2023-03-29T22:59:01.375Z,-9.28
2023-03-29T23:01:29.013Z,-9.27
2023-03-29T23:03:56.737Z,-9.30
2023-03-29T23:06:24.567Z,-9.39
2023-03-29T23:08:53.630Z,-9.59
2023-03-29T23:11:21.597Z,-9.66
2023-03-29T23:13:49.711Z,-9.68
2023-03-29T23:16:20.659Z,-9.82
2023-03-29T23:18:48.512Z,-9.92
2023-03-29T23:21:16.654Z,-9.92
2023-03-29T23:23:44.754Z,-10.02
2023-03-29T23:26:14.064Z,-10.11
2023-03-29T23:28:42.332Z,-10.10
2023-03-29T23:31:11.510Z,-10.16
2023-03-29T23:33:40.406Z,-10.32
2023-03-29T23:36:08.967Z,-10.47
2023-03-29T23:38:37.541Z,-10.63
2023-03-29T23:41:06.545Z,-10.59
2023-03-29T23:43:37.282Z,-10.60
2023-03-29T23:46:07.037Z,-10.85
2023-03-29T23:48:35.028Z,-10.81
2023-03-29T23:51:03.105Z,-10.82
2023-03-29T23:53:32.116Z,-10.89
2023-03-29T23:56:00.601Z,-10.83
2023-03-29T23:58:28.546Z,-10.81
